Airfield :
LOGIN :

Register | Disclaimer

   EN    FR    IT 

 










Legend :    VFR   Marginal VFR   IFR   Intensive IFR   Very Intensive IFR
Visi :
Ceiling :
>= 8 km
>= 3000ft
5 to 8 km
1000 to 3000 ft
1500m to 5 km
500 to 1000 ft
800 to 1500m
200 to 500 ft
< 800m
< 200 ft
Symbols :   Thunderstorms  Fog  Heavy snow  Heavy precipitations  Wind > 20 kt
SIGMETs :     Misc.  Thunderstorms  Icing  Turbulence  Mountain Waves  Volcanic Ashes






- Airport Elevation : 2661 ft
- IATA code : TEE


DABS - Cheikh Larbi Tebessi

CURRENT METAR :
  • 010700Z 13005KT 9999 FEW033 04/03 Q1022

EXPIRED METARs :
  • 010600Z 12004KT 9999 FEW033 03/02 Q1022
  • 010500Z 14004KT 9999 FEW033 04/03 Q1022

TAF TAF DABS
Valid from the 01 at 06:00 until the 02 at 06:00 UTC


010500Z 0106/0206 20006KT 9999 FEW030
PROB30
TEMPO 0106/0108 VRB02KT 2000 BR BKN010
BECMG 0108/0110 27010KT



MET'MAP, your aeronautical weather chart ! - Copyright ORBIFLY December 2007 - Disclaimer

ORBIFLY MET'MAP TEAM :

Programming & Development : Alexandra Zaïnal
Concept & original design : Baudouin d'Aumeries
Assistance for programming : Marc-Olivier Méhu
Technical & hardware support : Manuel Goepfert

Contact : metmap@orbifly.com




SOURCES & CREDITS :

   NOAA